ENTCENKR

Guest
Details From ENTC - Tromso Langnes
To ENKR - HOYBUKTMOEN
Flight Number -
Tags generated
Created
Modified
Stats Distance 228 nm / 423 km
Max Altitude 15,300 ft / 4,663 m
Waypoints 6
Social Downloads 0
Likes 0
Share VATSIM

Download

Looking for another format? Having issues loading an existing format? Contact us
Advertisement - Login to hide

Notes

Basic altitude profile: - Ascent Rate: 2500ft/min - Ascent Speed: 250kts - Cruise Altitude: 35000ft - Cruise Speed: 420kts - Descent Rate: 1500ft/min - Descent Speed: 250kts Options: - Use NATs: yes - Use PACOTS: yes - Use low airways: yes - Use high airways: yes

Route

ENTC LENSA Z210 KIK ENKR

ID Type Via Altitude Latitude Longitude Leg Dist Tot Dist Heading (true) Name
O ENTC APT - 0 ft / 0 m 69.68287˚ 18.91936˚ - 0 nm - Tromso Langnes
LENSA FIX - 8,100 ft / 2,469 m 69.73306˚ 20.00000˚ 22 nm 22 nm 82° / 83° -
TINOS FIX Z210 (AWY-LO) 15,300 ft / 4,663 m 69.79167˚ 26.22778˚ 129 nm 152 nm 86° / 91° -
VADLA FIX Z210 (AWY-LO) 6,500 ft / 1,981 m 69.75167˚ 28.79500˚ 53 nm 205 nm 91° / 94° -
KIK VOR Z210 (AWY-LO) 11,000 ft / 3,353 m 69.72379˚ 29.86911˚ 22 nm 227 nm 94° / 95° KIRKENES VOR-DME
O ENKR APT - 0 ft / 0 m 69.72522˚ 29.89080˚ 0 nm 228 nm 79° / 79° HOYBUKTMOEN

Altitude Profile

Advertisement - Login to hide

Weather


0- 5 10 15 20 25 30 35+ Temperature / ° C

Clouds and Precipitation
Forecast for 2017-12-16 12:00 UTC. Updated 13 minutes ago

Ground ~20,000 ft ~40,000 ft Winds

ENTC

Details ICAO ENTC (TOS)
Name Tromso Langnes
Region Norway
Timezone Europe/Oslo (UTC+1.0)
Stats Elevation 31 ft / 9 m (AMSL)
Location 69.682866° 18.919363°
Runways 1
Magnetic Variation 8.799° E

METAR

ENTC 161120Z 20014KT 9999 FEW020 SCT048 BKN064 M02/M06 Q0997 NOSIG RMK WIND 2600FT 21010KT

Decode

TAF

TAF ENTC 160500Z 1606/1706 20010KT 9999 FEW010 BKN040

Decode

Departure Runways

ID Width Length Bearing (true) Bearing (mag) Surface Threshold Offset Overrun Length
01 141 ft / 43 m 7,740 ft / 2,359 m 12.19° 3.39° Asphalt 0 ft / 0 m 289 ft / 88 m
19 141 ft / 43 m 7,740 ft / 2,359 m 192.21° 183.41° Asphalt 1,227 ft / 374 m 482 ft / 147 m

ENKR

Details ICAO ENKR (KKN)
Name HOYBUKTMOEN
Region Norway
Timezone Europe/Oslo (UTC+1.0)
Stats Elevation 283 ft / 86 m (AMSL)
Location 69.725215° 29.890800°
Runways 1
Magnetic Variation 14.946° E

METAR

ENKR 161120Z 17006KT 9999 FEW031 SCT040 M08/M09 Q1000 RMK WIND 731FT 23010KT

Decode

TAF

Not found

Destination Runways

ID Width Length Bearing (true) Bearing (mag) Surface Threshold Offset Overrun Length
06 148 ft / 45 m 6,192 ft / 1,887 m 69.03° 54.08° Asphalt 184 ft / 56 m 0 ft / 0 m
24 148 ft / 45 m 6,192 ft / 1,887 m 249.07° 234.12° Asphalt 1,450 ft / 442 m 0 ft / 0 m

Approach Navaids

Runway Type Ident Frequency Range Bearing (true) Bearing (mag) Slope Elevation
24 Localiser KR 110.30 MHz 18 nm / 33 km 249.76° 234.81° - 283 ft / 86 m (AMSL)
24 Glidescope KR 110.30 MHz 10 nm / 19 km 249.05° 234.11° 3.40° 283 ft / 86 m (AMSL)

Popular Alternatives